Time;durP1;ratioP1;P1;durP2;ratioP2;P2;SDS_P1;SDS_P2;PMS_P1;PMS_P2;Temp;Humidity;BMP_temperature;BMP_pressure;BME280_temperature;BME280_humidity;BME280_pressure;Samples;Min_cycle;Max_cycle;Signal;HPM_P1;HPM_P2
2022/07/07 00:00:45;;;;;;;8.15;2.58;;;21.10;73.60;;;;;;2085477;28;20025;-69
2022/07/07 00:01:45;;;;;;;4.25;2.30;;;21.10;73.60;;;;;;2085959;28;20052;-69
2022/07/07 00:02:46;;;;;;;4.13;2.33;;;21.10;73.70;;;;;;2083877;28;20028;-69
2022/07/07 00:03:47;;;;;;;5.07;2.03;;;21.10;74.00;;;;;;2086177;28;20392;-69
2022/07/07 00:04:47;;;;;;;4.30;1.80;;;21.00;74.00;;;;;;2082691;28;20025;-69
2022/07/07 00:05:48;;;;;;;3.83;1.98;;;21.10;74.30;;;;;;2080398;28;20083;-69
2022/07/07 00:06:49;;;;;;;5.82;2.65;;;21.10;74.40;;;;;;2083327;28;20036;-69
2022/07/07 00:07:49;;;;;;;2.47;1.70;;;21.10;74.50;;;;;;2086590;28;20021;-69
2022/07/07 00:08:54;;;;;;;7.90;3.03;;;21.10;74.20;;;;;;2084598;28;20121;-69
2022/07/07 00:09:54;;;;;;;3.00;2.15;;;21.10;75.10;;;;;;2082932;28;20544;-69
2022/07/07 00:10:56;;;;;;;5.18;2.38;;;21.10;75.40;;;;;;2084842;28;20025;-69
2022/07/07 00:11:58;;;;;;;4.70;2.40;;;21.10;75.30;;;;;;2085694;28;20487;-69
2022/07/07 00:12:58;;;;;;;3.25;2.08;;;21.00;75.00;;;;;;2086507;28;20616;-69
2022/07/07 00:13:59;;;;;;;4.85;2.20;;;21.00;75.30;;;;;;2084180;28;20017;-69
2022/07/07 00:14:59;;;;;;;4.35;2.08;;;21.00;75.50;;;;;;2082754;28;20638;-69
2022/07/07 00:16:00;;;;;;;6.50;2.78;;;21.00;76.00;;;;;;2084696;28;20025;-69
2022/07/07 00:17:01;;;;;;;4.50;2.25;;;21.00;76.40;;;;;;2087497;28;20436;-69
2022/07/07 00:18:01;;;;;;;9.77;2.13;;;21.00;76.60;;;;;;2088525;28;20122;-69
2022/07/07 00:19:03;;;;;;;7.13;2.33;;;21.00;76.80;;;;;;2087804;28;20055;-69
2022/07/07 00:20:05;;;;;;;4.22;2.40;;;21.00;76.70;;;;;;2083977;28;20794;-69
2022/07/07 00:21:06;;;;;;;5.55;2.55;;;21.00;77.00;;;;;;2084448;28;20113;-69
2022/07/07 00:22:07;;;;;;;5.97;2.40;;;20.90;76.90;;;;;;2086441;28;20021;-69
2022/07/07 00:23:07;;;;;;;6.00;2.60;;;20.90;77.40;;;;;;2083064;28;20033;-69
2022/07/07 00:24:08;;;;;;;3.97;1.90;;;20.90;77.90;;;;;;2088910;28;20104;-69
2022/07/07 00:25:09;;;;;;;5.57;2.38;;;21.00;78.30;;;;;;2083482;28;20030;-69
2022/07/07 00:26:09;;;;;;;3.13;1.95;;;20.90;78.30;;;;;;2086942;28;20439;-69
2022/07/07 00:27:10;;;;;;;5.03;1.92;;;20.90;78.30;;;;;;2083823;28;20041;-69
2022/07/07 00:28:11;;;;;;;6.55;2.90;;;20.90;78.50;;;;;;2084389;28;20029;-69
2022/07/07 00:29:11;;;;;;;3.40;1.65;;;21.00;78.60;;;;;;2084817;28;20408;-69
2022/07/07 00:30:12;;;;;;;4.05;1.90;;;20.90;78.80;;;;;;2081495;28;20022;-69
2022/07/07 00:31:13;;;;;;;2.80;1.70;;;21.00;79.10;;;;;;2085715;28;20028;-69
2022/07/07 00:32:14;;;;;;;5.80;1.90;;;20.90;79.20;;;;;;2083792;28;20025;-69
2022/07/07 00:33:15;;;;;;;2.33;1.90;;;21.00;79.30;;;;;;2086196;28;20099;-69
2022/07/07 00:34:15;;;;;;;3.38;1.83;;;21.00;79.30;;;;;;2083189;28;20025;-69
2022/07/07 00:35:16;;;;;;;4.32;2.33;;;21.00;79.10;;;;;;2085105;28;20480;-69
2022/07/07 00:36:17;;;;;;;6.13;1.92;;;21.00;79.10;;;;;;2084952;28;20029;-69
2022/07/07 00:37:17;;;;;;;8.20;2.33;;;21.00;79.50;;;;;;2082781;28;20040;-69
2022/07/07 00:38:18;;;;;;;5.38;2.40;;;21.00;79.00;;;;;;2083422;28;20022;-69
2022/07/07 00:39:18;;;;;;;5.45;2.10;;;21.00;79.10;;;;;;2083296;28;20469;-69
2022/07/07 00:40:19;;;;;;;5.57;1.80;;;21.00;79.20;;;;;;2087245;28;20059;-69
2022/07/07 00:41:20;;;;;;;5.63;2.17;;;21.00;78.90;;;;;;2085289;28;20805;-69
2022/07/07 00:42:20;;;;;;;4.25;1.73;;;21.00;79.20;;;;;;2085293;28;20074;-69
2022/07/07 00:43:21;;;;;;;4.30;2.13;;;21.00;79.40;;;;;;2086526;28;20147;-69
2022/07/07 00:44:22;;;;;;;3.75;2.05;;;21.00;79.60;;;;;;2084605;28;20492;-69
2022/07/07 00:45:23;;;;;;;3.85;1.80;;;21.00;79.60;;;;;;2085247;28;20024;-69
2022/07/07 00:46:24;;;;;;;3.17;1.90;;;21.00;79.50;;;;;;2087211;28;20021;-69
2022/07/07 00:47:26;;;;;;;5.60;2.42;;;21.00;79.00;;;;;;2085383;28;20140;-69
2022/07/07 00:48:27;;;;;;;3.75;2.03;;;21.00;79.80;;;;;;2083750;28;20026;-69
2022/07/07 00:49:27;;;;;;;3.30;1.70;;;21.00;79.60;;;;;;2083377;28;20049;-69
2022/07/07 00:50:28;;;;;;;4.32;2.20;;;21.00;79.60;;;;;;2083447;28;20025;-69
2022/07/07 00:51:29;;;;;;;7.32;2.15;;;21.00;80.00;;;;;;2084487;28;20045;-69
2022/07/07 00:52:29;;;;;;;3.80;1.90;;;21.00;80.20;;;;;;2083656;28;20712;-69
2022/07/07 00:53:30;;;;;;;3.65;1.63;;;21.00;80.20;;;;;;2083326;28;20588;-69
2022/07/07 00:54:31;;;;;;;8.20;2.35;;;21.00;80.60;;;;;;2082997;28;20061;-69
2022/07/07 00:55:32;;;;;;;4.00;2.08;;;21.00;80.40;;;;;;2082728;28;20569;-69
2022/07/07 00:56:33;;;;;;;4.63;1.85;;;21.00;80.70;;;;;;2083391;28;20107;-69
2022/07/07 00:57:34;;;;;;;3.53;2.40;;;21.00;80.50;;;;;;2085428;28;20460;-69
2022/07/07 00:58:35;;;;;;;5.47;2.20;;;21.00;80.90;;;;;;2081857;28;20030;-69
2022/07/07 00:59:36;;;;;;;4.82;2.03;;;21.00;81.40;;;;;;2084985;28;20096;-69
2022/07/07 01:00:37;;;;;;;4.30;2.20;;;21.00;81.70;;;;;;2083626;28;20030;-69
2022/07/07 01:01:40;;;;;;;6.45;2.13;;;21.00;81.50;;;;;;2085052;28;20033;-69
2022/07/07 01:02:44;;;;;;;7.57;2.38;;;21.00;81.60;;;;;;2084481;28;20021;-69
2022/07/07 01:03:44;;;;;;;2.88;2.20;;;21.00;81.80;;;;;;2085423;28;20053;-69
2022/07/07 01:04:45;;;;;;;4.18;2.10;;;21.00;81.70;;;;;;2085395;28;20036;-69
2022/07/07 01:05:46;;;;;;;2.10;1.40;;;21.00;82.10;;;;;;2085353;28;20473;-69
2022/07/07 01:06:47;;;;;;;3.30;1.73;;;20.90;82.30;;;;;;2087143;28;20032;-69
2022/07/07 01:07:52;;;;;;;4.75;2.15;;;20.90;82.60;;;;;;2084011;28;20100;-69
2022/07/07 01:08:53;;;;;;;4.75;2.25;;;20.90;83.20;;;;;;2085314;28;20021;-69
2022/07/07 01:09:56;;;;;;;3.60;1.65;;;20.90;83.60;;;;;;2086875;28;20025;-69
2022/07/07 01:10:57;;;;;;;4.30;2.00;;;20.90;83.70;;;;;;2084097;28;20112;-69
2022/07/07 01:11:58;;;;;;;3.55;2.00;;;20.90;84.30;;;;;;2084795;28;20025;-68
2022/07/07 01:13:02;;;;;;;2.38;1.65;;;20.90;84.40;;;;;;2082905;28;20025;-68
2022/07/07 01:14:02;;;;;;;4.78;1.70;;;20.90;85.10;;;;;;2082548;28;20036;-68
2022/07/07 01:15:04;;;;;;;3.53;1.55;;;20.80;85.30;;;;;;2085775;28;20120;-68
2022/07/07 01:16:05;;;;;;;4.25;1.58;;;20.80;85.40;;;;;;2084839;28;20033;-69
2022/07/07 01:17:05;;;;;;;4.82;1.55;;;20.80;84.60;;;;;;2085303;28;20013;-69
2022/07/07 01:18:06;;;;;;;4.00;2.00;;;20.80;84.40;;;;;;2084836;28;20100;-69
2022/07/07 01:19:07;;;;;;;2.22;1.33;;;20.80;85.90;;;;;;2083535;28;20072;-68
2022/07/07 01:20:10;;;;;;;3.65;2.17;;;20.80;86.50;;;;;;2085058;28;20025;-69
2022/07/07 01:21:16;;;;;;;2.75;1.58;;;20.80;87.60;;;;;;2085280;28;20561;-69
2022/07/07 01:22:18;;;;;;;4.70;1.63;;;20.80;88.60;;;;;;2085471;28;20261;-69
2022/07/07 01:23:19;;;;;;;2.90;1.40;;;20.80;88.80;;;;;;2083465;28;20030;-69
2022/07/07 01:24:22;;;;;;;4.88;1.65;;;20.70;89.20;;;;;;2083134;28;20048;-69
2022/07/07 01:25:23;;;;;;;3.90;1.65;;;20.70;89.70;;;;;;2083035;28;20017;-69
2022/07/07 01:26:26;;;;;;;2.88;1.70;;;20.70;89.00;;;;;;2085098;28;20021;-69
2022/07/07 01:27:27;;;;;;;3.13;1.63;;;20.70;88.20;;;;;;2084102;28;20062;-69
2022/07/07 01:28:27;;;;;;;2.83;1.35;;;20.70;90.00;;;;;;2082761;28;20466;-69
2022/07/07 01:29:28;;;;;;;2.03;1.48;;;20.70;90.40;;;;;;2085096;28;20025;-69
2022/07/07 01:30:29;;;;;;;4.03;1.90;;;20.70;90.40;;;;;;2085772;28;20096;-69
2022/07/07 01:31:29;;;;;;;2.47;1.80;;;20.70;90.60;;;;;;2089406;28;20457;-69
2022/07/07 01:32:30;;;;;;;2.95;1.42;;;20.70;91.20;;;;;;2086185;28;20135;-69
2022/07/07 01:33:31;;;;;;;5.50;1.77;;;20.70;91.40;;;;;;2084838;28;20107;-69
2022/07/07 01:34:31;;;;;;;5.28;1.73;;;20.70;92.10;;;;;;2085038;28;20505;-69
2022/07/07 01:35:32;;;;;;;2.33;1.33;;;20.70;92.00;;;;;;2084562;28;20151;-69
2022/07/07 01:36:33;;;;;;;2.80;1.38;;;20.70;92.70;;;;;;2086037;28;20045;-68
2022/07/07 01:37:34;;;;;;;3.53;1.50;;;20.70;93.10;;;;;;2085207;28;20016;-68
2022/07/07 01:38:35;;;;;;;1.75;1.50;;;20.70;93.10;;;;;;2086247;28;20362;-68
2022/07/07 01:39:37;;;;;;;2.20;1.60;;;20.70;93.70;;;;;;2085412;28;20071;-68
2022/07/07 01:40:37;;;;;;;1.88;1.60;;;20.70;94.20;;;;;;2086141;28;20480;-69
2022/07/07 01:41:38;;;;;;;2.20;1.13;;;20.70;94.40;;;;;;2081085;28;20380;-69
2022/07/07 01:42:39;;;;;;;5.13;1.27;;;20.70;94.60;;;;;;2083130;28;20025;-69
2022/07/07 01:43:39;;;;;;;1.88;1.77;;;20.70;95.10;;;;;;2087087;28;20025;-69
2022/07/07 01:44:41;;;;;;;5.43;1.60;;;20.60;94.90;;;;;;2086067;28;20025;-69
2022/07/07 01:45:42;;;;;;;3.38;1.50;;;20.70;95.30;;;;;;2086280;28;20064;-69
2022/07/07 01:46:43;;;;;;;3.35;1.63;;;20.70;95.70;;;;;;2085847;28;20020;-69
2022/07/07 01:47:43;;;;;;;4.47;1.70;;;20.70;95.90;;;;;;2088382;28;20078;-69
2022/07/07 01:48:44;;;;;;;2.83;1.73;;;20.60;96.00;;;;;;2082990;28;20531;-69
2022/07/07 01:49:46;;;;;;;2.00;1.55;;;20.60;96.30;;;;;;2083116;28;20032;-69
2022/07/07 01:50:46;;;;;;;2.35;1.52;;;20.60;96.20;;;;;;2083846;28;20068;-69
2022/07/07 01:51:47;;;;;;;4.53;1.70;;;20.70;96.70;;;;;;2085456;28;20028;-69
2022/07/07 01:52:47;;;;;;;1.85;1.65;;;20.60;97.00;;;;;;2085005;28;20441;-69
2022/07/07 01:53:48;;;;;;;3.15;1.70;;;20.60;97.20;;;;;;2084785;28;20044;-69
2022/07/07 01:54:48;;;;;;;2.72;1.42;;;20.60;97.40;;;;;;2086059;28;20559;-69
2022/07/07 01:55:49;;;;;;;3.53;1.55;;;20.60;97.10;;;;;;2087142;28;20115;-69
2022/07/07 01:56:50;;;;;;;3.85;1.40;;;20.70;97.50;;;;;;2083081;28;20021;-69
2022/07/07 01:57:50;;;;;;;2.88;1.90;;;20.60;97.80;;;;;;2082268;28;20017;-68
2022/07/07 01:58:51;;;;;;;5.75;2.20;;;20.60;98.20;;;;;;2083046;28;20444;-69
2022/07/07 01:59:51;;;;;;;3.03;1.70;;;20.60;98.40;;;;;;2082018;28;20504;-69
2022/07/07 02:00:52;;;;;;;2.63;1.90;;;20.60;98.50;;;;;;2083847;28;20063;-69
2022/07/07 02:01:53;;;;;;;4.20;1.75;;;20.60;98.70;;;;;;2087432;28;20595;-69
2022/07/07 02:02:54;;;;;;;2.83;1.88;;;20.60;98.80;;;;;;2085352;28;20029;-69
2022/07/07 02:03:54;;;;;;;3.05;1.63;;;20.60;98.80;;;;;;2081800;28;20435;-69
2022/07/07 02:04:55;;;;;;;3.58;2.20;;;20.60;99.00;;;;;;2081886;28;20055;-69
2022/07/07 02:05:55;;;;;;;3.30;2.05;;;20.60;99.20;;;;;;2081906;28;20389;-69
2022/07/07 02:06:56;;;;;;;4.00;2.13;;;20.60;99.60;;;;;;2084642;28;20032;-69
2022/07/07 02:07:57;;;;;;;3.03;1.75;;;20.60;99.70;;;;;;2086296;28;20040;-69
2022/07/07 02:08:57;;;;;;;3.63;2.10;;;20.60;99.90;;;;;;2082855;28;20040;-69
2022/07/07 02:10:00;;;;;;;4.05;2.03;;;20.60;99.80;;;;;;2085931;28;20032;-69
2022/07/07 02:11:13;;;;;;;3.53;1.40;;;20.60;99.90;;;;;;2083599;28;20104;-69
2022/07/07 02:12:14;;;;;;;3.17;1.80;;;20.70;99.90;;;;;;2086550;28;20109;-69
2022/07/07 02:13:15;;;;;;;2.22;2.03;;;20.60;99.90;;;;;;2083514;28;20030;-69
2022/07/07 02:14:15;;;;;;;4.53;2.03;;;20.60;99.90;;;;;;2084579;28;20496;-69
2022/07/07 02:15:16;;;;;;;4.03;1.90;;;20.60;99.90;;;;;;2089126;28;20021;-69
2022/07/07 02:16:19;;;;;;;3.08;2.00;;;20.60;99.90;;;;;;2086250;28;20392;-69
2022/07/07 02:17:19;;;;;;;3.97;2.15;;;20.60;99.90;;;;;;2084913;28;20104;-69
2022/07/07 02:18:20;;;;;;;3.45;2.08;;;20.60;99.90;;;;;;2085911;28;20049;-69
2022/07/07 02:19:21;;;;;;;3.53;2.05;;;20.60;99.90;;;;;;2085477;28;20537;-69
2022/07/07 02:20:21;;;;;;;3.80;1.75;;;20.60;99.90;;;;;;2084898;28;20021;-69
2022/07/07 02:21:23;;;;;;;2.25;2.05;;;20.60;99.90;;;;;;2084462;28;20064;-69
2022/07/07 02:22:23;;;;;;;3.67;2.80;;;20.60;99.90;;;;;;2085896;28;20049;-69
2022/07/07 02:23:24;;;;;;;3.72;2.40;;;20.60;99.90;;;;;;2082794;28;20032;-69
2022/07/07 02:24:24;;;;;;;5.93;3.40;;;20.60;99.90;;;;;;2083088;28;20030;-69
2022/07/07 02:25:25;;;;;;;6.65;3.17;;;20.60;99.90;;;;;;2081041;28;20029;-69
2022/07/07 02:26:26;;;;;;;4.97;3.22;;;20.60;99.90;;;;;;2086853;28;20485;-69
2022/07/07 02:27:27;;;;;;;6.72;3.35;;;20.60;99.90;;;;;;2086685;28;20040;-69
2022/07/07 02:28:27;;;;;;;5.22;3.25;;;20.60;99.90;;;;;;2085241;28;20037;-69
2022/07/07 02:29:28;;;;;;;6.40;3.63;;;20.60;99.90;;;;;;2084992;28;20455;-69
2022/07/07 02:30:28;;;;;;;6.57;3.55;;;20.60;99.90;;;;;;2084755;28;20515;-69
2022/07/07 02:31:30;;;;;;;6.13;3.25;;;20.60;99.90;;;;;;2086588;28;20401;-69
2022/07/07 02:32:30;;;;;;;4.22;3.00;;;20.60;99.90;;;;;;2085349;28;20025;-69
2022/07/07 02:33:31;;;;;;;5.68;3.00;;;20.60;99.90;;;;;;2084486;28;20029;-69
2022/07/07 02:34:32;;;;;;;6.30;3.20;;;20.60;99.90;;;;;;2085315;28;20025;-69
2022/07/07 02:35:33;;;;;;;3.97;2.75;;;20.60;99.90;;;;;;2087009;28;20028;-69
2022/07/07 02:36:34;;;;;;;6.63;3.05;;;20.60;99.90;;;;;;2086164;28;20022;-69
2022/07/07 02:37:34;;;;;;;5.15;2.97;;;20.60;99.90;;;;;;2084674;28;20468;-68
2022/07/07 02:38:36;;;;;;;5.97;3.55;;;20.60;99.90;;;;;;2086711;28;20013;-68
2022/07/07 02:39:36;;;;;;;4.32;3.38;;;20.60;99.90;;;;;;2082966;28;20064;-68
2022/07/07 02:40:37;;;;;;;6.57;3.17;;;20.60;99.90;;;;;;2083893;28;20057;-69
2022/07/07 02:41:38;;;;;;;5.30;3.13;;;20.60;99.90;;;;;;2085933;28;20040;-69
2022/07/07 02:42:38;;;;;;;5.88;3.03;;;20.60;99.90;;;;;;2086933;28;20518;-69
2022/07/07 02:43:39;;;;;;;4.35;3.00;;;20.60;99.90;;;;;;2085779;28;20064;-69
2022/07/07 02:44:39;;;;;;;7.07;3.40;;;20.60;99.90;;;;;;2081262;28;20028;-69
2022/07/07 02:45:41;;;;;;;5.82;3.28;;;20.60;99.90;;;;;;2083323;28;20033;-69
2022/07/07 02:46:41;;;;;;;6.47;3.70;;;20.60;99.90;;;;;;2083064;28;20076;-69
2022/07/07 02:47:42;;;;;;;5.00;3.35;;;20.60;99.90;;;;;;2085257;28;20033;-69
2022/07/07 02:48:43;;;;;;;6.65;3.53;;;20.60;99.90;;;;;;2084924;28;20096;-69
2022/07/07 02:49:43;;;;;;;7.55;3.75;;;20.60;99.90;;;;;;2084795;28;20437;-69
2022/07/07 02:50:44;;;;;;;6.20;3.63;;;20.60;99.90;;;;;;2086357;28;20543;-69
2022/07/07 02:51:46;;;;;;;5.28;3.70;;;20.60;99.90;;;;;;2085122;28;20021;-68
2022/07/07 02:52:46;;;;;;;4.40;3.50;;;20.60;99.90;;;;;;2085149;28;20499;-69
2022/07/07 02:53:47;;;;;;;5.53;4.22;;;20.60;99.90;;;;;;2088231;28;20478;-69
2022/07/07 02:54:47;;;;;;;5.82;3.92;;;20.60;99.90;;;;;;2085013;28;20654;-68
2022/07/07 02:55:48;;;;;;;6.07;4.35;;;20.60;99.90;;;;;;2084090;28;20041;-69
2022/07/07 02:56:49;;;;;;;8.98;4.68;;;20.50;99.90;;;;;;2084511;28;20110;-69
2022/07/07 02:57:50;;;;;;;4.50;4.10;;;20.60;99.90;;;;;;2086917;28;20545;-69
2022/07/07 02:58:51;;;;;;;7.28;4.10;;;20.50;99.90;;;;;;2082675;28;20025;-68
2022/07/07 02:59:52;;;;;;;5.13;4.03;;;20.50;99.90;;;;;;2082679;28;20096;-69
2022/07/07 03:00:54;;;;;;;5.93;4.07;;;20.50;99.90;;;;;;2082858;28;20021;-68
2022/07/07 03:01:55;;;;;;;7.45;4.13;;;20.50;99.90;;;;;;2082915;28;20013;-69
2022/07/07 03:02:55;;;;;;;5.80;3.90;;;20.50;99.90;;;;;;2084158;28;20044;-69
2022/07/07 03:03:56;;;;;;;5.63;4.05;;;20.50;99.90;;;;;;2085986;28;20413;-69
2022/07/07 03:04:57;;;;;;;6.40;3.67;;;20.50;99.90;;;;;;2084360;28;20032;-69
2022/07/07 03:05:57;;;;;;;4.97;3.70;;;20.40;99.90;;;;;;2083414;28;20032;-69
2022/07/07 03:06:58;;;;;;;7.40;4.10;;;20.40;99.90;;;;;;2084653;28;20025;-69
2022/07/07 03:07:59;;;;;;;6.30;4.03;;;20.40;99.90;;;;;;2084538;28;20063;-69
2022/07/07 03:08:59;;;;;;;5.25;3.83;;;20.40;99.90;;;;;;2085993;28;20028;-69
2022/07/07 03:10:00;;;;;;;8.30;4.30;;;20.40;99.90;;;;;;2084520;28;20525;-69
2022/07/07 03:11:01;;;;;;;6.53;4.03;;;20.40;99.90;;;;;;2084102;28;20045;-69
2022/07/07 03:12:01;;;;;;;6.50;4.32;;;20.40;99.90;;;;;;2084677;28;20037;-68
2022/07/07 03:13:02;;;;;;;8.93;4.70;;;20.40;99.90;;;;;;2084283;28;20512;-68
2022/07/07 03:14:02;;;;;;;5.35;4.70;;;20.40;99.90;;;;;;2083088;28;20025;-69
2022/07/07 03:15:03;;;;;;;6.32;5.05;;;20.30;99.90;;;;;;2083903;28;20021;-69
2022/07/07 03:16:04;;;;;;;8.07;5.07;;;20.30;99.90;;;;;;2082865;28;20105;-69
2022/07/07 03:17:05;;;;;;;6.97;4.95;;;20.30;99.90;;;;;;2083724;28;20021;-68
2022/07/07 03:18:05;;;;;;;7.40;4.50;;;20.30;99.90;;;;;;2083967;28;20100;-68
2022/07/07 03:19:06;;;;;;;5.65;4.72;;;20.30;99.90;;;;;;2083274;28;20919;-68
2022/07/07 03:20:08;;;;;;;6.05;5.00;;;20.30;99.90;;;;;;2081760;28;20433;-68
2022/07/07 03:21:08;;;;;;;8.75;5.18;;;20.30;99.90;;;;;;2082550;28;20037;-68
2022/07/07 03:22:09;;;;;;;5.68;5.13;;;20.20;99.90;;;;;;2082549;28;20055;-68
2022/07/07 03:23:09;;;;;;;6.63;4.50;;;20.20;99.90;;;;;;2084284;28;20515;-68
2022/07/07 03:24:10;;;;;;;6.97;4.82;;;20.20;99.90;;;;;;2083402;28;20476;-68
2022/07/07 03:25:11;;;;;;;5.70;4.70;;;20.20;99.90;;;;;;2082796;28;20432;-68
2022/07/07 03:26:12;;;;;;;4.93;3.75;;;20.20;99.90;;;;;;2083999;28;20036;-68
2022/07/07 03:27:12;;;;;;;5.78;4.05;;;20.10;99.90;;;;;;2084391;28;20035;-68
2022/07/07 03:28:13;;;;;;;5.65;4.75;;;20.20;99.90;;;;;;2082656;28;20049;-68
2022/07/07 03:29:14;;;;;;;5.95;5.35;;;20.10;99.90;;;;;;2083874;28;20060;-69
2022/07/07 03:30:14;;;;;;;9.05;6.03;;;20.20;99.90;;;;;;2083387;28;20186;-69
2022/07/07 03:31:15;;;;;;;7.05;5.40;;;20.10;99.90;;;;;;2086193;28;20033;-68
2022/07/07 03:32:16;;;;;;;7.80;6.18;;;20.10;99.90;;;;;;2087203;28;20025;-69
2022/07/07 03:33:16;;;;;;;7.65;5.55;;;20.10;99.90;;;;;;2084596;28;20112;-69
2022/07/07 03:34:17;;;;;;;7.20;5.10;;;20.10;99.90;;;;;;2082617;28;20457;-69
2022/07/07 03:35:18;;;;;;;10.48;4.78;;;20.10;99.90;;;;;;2082197;28;20101;-68
2022/07/07 03:36:18;;;;;;;5.78;4.75;;;20.10;99.90;;;;;;2086961;28;20404;-68
2022/07/07 03:37:19;;;;;;;5.68;4.85;;;20.10;99.90;;;;;;2083151;28;20112;-68
2022/07/07 03:38:19;;;;;;;7.00;5.85;;;20.10;99.90;;;;;;2083931;28;20029;-68
2022/07/07 03:39:20;;;;;;;7.65;5.00;;;20.10;99.90;;;;;;2083300;28;20031;-68
2022/07/07 03:40:20;;;;;;;5.63;5.05;;;20.10;99.90;;;;;;2083344;28;20115;-69
2022/07/07 03:41:21;;;;;;;6.57;5.38;;;20.10;99.90;;;;;;2082465;28;20078;-69
2022/07/07 03:42:22;;;;;;;6.28;5.68;;;20.10;99.90;;;;;;2085186;28;20448;-68
2022/07/07 03:43:22;;;;;;;6.95;5.75;;;20.10;99.90;;;;;;2084515;28;20362;-68
2022/07/07 03:44:23;;;;;;;6.80;5.07;;;20.10;99.90;;;;;;2085117;28;20036;-68
2022/07/07 03:45:24;;;;;;;7.75;5.63;;;20.10;99.90;;;;;;2084718;28;20025;-68
2022/07/07 03:46:24;;;;;;;5.53;5.03;;;20.00;99.90;;;;;;2086010;28;20420;-68
2022/07/07 03:47:25;;;;;;;7.53;5.28;;;20.10;99.90;;;;;;2085375;28;20530;-69
2022/07/07 03:48:28;;;;;;;6.70;6.00;;;20.00;99.90;;;;;;2082490;28;20025;-68
2022/07/07 03:49:29;;;;;;;7.13;5.72;;;20.00;99.90;;;;;;2082273;28;20029;-68
2022/07/07 03:50:29;;;;;;;9.05;6.05;;;20.00;99.90;;;;;;2087711;28;20479;-68
2022/07/07 03:51:30;;;;;;;7.47;6.00;;;20.00;99.90;;;;;;2087148;28;20053;-68
2022/07/07 03:52:30;;;;;;;6.85;5.68;;;20.00;99.90;;;;;;2084450;28;20041;-68
2022/07/07 03:53:31;;;;;;;6.63;6.00;;;20.00;99.90;;;;;;2083681;28;20025;-68
2022/07/07 03:54:32;;;;;;;7.22;5.05;;;20.00;99.90;;;;;;2082944;28;20029;-68
2022/07/07 03:55:32;;;;;;;8.63;4.95;;;20.00;99.90;;;;;;2082982;28;20028;-68
2022/07/07 03:56:33;;;;;;;8.50;5.22;;;20.00;99.90;;;;;;2081613;28;20396;-68
2022/07/07 03:57:34;;;;;;;6.15;5.20;;;20.00;99.90;;;;;;2082761;28;20020;-68
2022/07/07 03:58:34;;;;;;;5.72;4.88;;;20.00;99.90;;;;;;2083642;28;20433;-68
2022/07/07 03:59:35;;;;;;;6.97;4.75;;;20.00;99.90;;;;;;2081724;28;20049;-68
2022/07/07 04:00:36;;;;;;;4.78;4.38;;;20.00;99.90;;;;;;2087347;28;20024;-68
2022/07/07 04:01:36;;;;;;;6.13;5.53;;;20.00;99.90;;;;;;2084717;28;20151;-68
2022/07/07 04:02:37;;;;;;;5.65;5.05;;;20.00;99.90;;;;;;2082445;28;20043;-68
2022/07/07 04:03:38;;;;;;;6.72;4.50;;;20.00;99.90;;;;;;2086367;28;20013;-68
2022/07/07 04:04:38;;;;;;;6.45;5.22;;;20.00;99.90;;;;;;2086059;28;20090;-68
2022/07/07 04:05:39;;;;;;;6.95;6.05;;;20.00;99.90;;;;;;2081199;28;20488;-68
2022/07/07 04:06:39;;;;;;;7.18;4.65;;;20.00;99.90;;;;;;2086198;28;20388;-68
2022/07/07 04:07:40;;;;;;;7.63;5.10;;;20.00;99.90;;;;;;2086290;28;20074;-68
2022/07/07 04:08:40;;;;;;;6.75;5.03;;;20.00;99.90;;;;;;2083581;28;20014;-68
2022/07/07 04:09:41;;;;;;;6.10;5.18;;;20.00;99.90;;;;;;2083611;28;20123;-68
2022/07/07 04:10:42;;;;;;;9.35;5.25;;;20.00;99.90;;;;;;2082546;28;20030;-68
2022/07/07 04:11:42;;;;;;;5.53;4.93;;;20.00;99.90;;;;;;2084366;28;20745;-68
2022/07/07 04:12:43;;;;;;;9.27;5.45;;;19.90;99.90;;;;;;2085208;28;20036;-68
2022/07/07 04:13:43;;;;;;;6.15;5.55;;;19.90;99.90;;;;;;2084885;28;20059;-68
2022/07/07 04:14:44;;;;;;;5.78;5.07;;;20.00;99.90;;;;;;2084328;28;20021;-68
2022/07/07 04:15:44;;;;;;;6.32;4.60;;;19.90;99.90;;;;;;2082874;28;20098;-68
2022/07/07 04:16:45;;;;;;;5.32;4.60;;;20.00;99.90;;;;;;2087020;28;20031;-68
2022/07/07 04:17:46;;;;;;;9.73;4.80;;;20.00;99.90;;;;;;2085215;28;20372;-68
2022/07/07 04:18:46;;;;;;;6.28;5.47;;;19.90;99.90;;;;;;2087130;28;20082;-68
2022/07/07 04:19:47;;;;;;;6.57;4.78;;;20.00;99.90;;;;;;2085011;28;20097;-68
2022/07/07 04:20:48;;;;;;;5.60;5.03;;;20.00;99.90;;;;;;2086898;28;20379;-69
2022/07/07 04:21:49;;;;;;;6.82;5.60;;;19.90;99.90;;;;;;2084924;28;20369;-68
2022/07/07 04:22:49;;;;;;;8.23;5.93;;;19.90;99.90;;;;;;2082337;28;20114;-68
2022/07/07 04:23:50;;;;;;;7.82;6.32;;;19.90;99.90;;;;;;2083991;28;20021;-68
2022/07/07 04:24:50;;;;;;;7.00;6.00;;;19.90;99.90;;;;;;2085748;28;20029;-68
2022/07/07 04:25:51;;;;;;;6.30;5.70;;;19.90;99.90;;;;;;2084977;28;20033;-68
2022/07/07 04:26:51;;;;;;;8.57;6.13;;;19.90;99.90;;;;;;2085141;28;20033;-68
2022/07/07 04:27:52;;;;;;;7.18;4.50;;;19.90;99.90;;;;;;2084790;28;20078;-68
2022/07/07 04:28:53;;;;;;;6.78;5.55;;;19.90;99.90;;;;;;2083938;28;20032;-68
2022/07/07 04:29:53;;;;;;;6.10;5.32;;;19.90;99.90;;;;;;2085267;28;20578;-68
2022/07/07 04:30:54;;;;;;;7.90;6.05;;;19.90;99.90;;;;;;2086374;28;20468;-68
2022/07/07 04:31:54;;;;;;;7.45;6.00;;;19.90;99.90;;;;;;2085532;28;20057;-68
2022/07/07 04:32:55;;;;;;;8.68;6.28;;;19.90;99.90;;;;;;2086469;28;20029;-68
2022/07/07 04:33:56;;;;;;;10.48;6.63;;;19.90;99.90;;;;;;2081982;28;20092;-68
2022/07/07 04:34:56;;;;;;;10.00;5.70;;;19.90;99.90;;;;;;2083175;28;20389;-68
2022/07/07 04:35:57;;;;;;;8.43;5.20;;;19.90;99.90;;;;;;2083384;28;20945;-68
2022/07/07 04:36:58;;;;;;;9.15;5.95;;;19.90;99.90;;;;;;2084577;28;20741;-68
2022/07/07 04:37:58;;;;;;;6.30;5.40;;;19.90;99.90;;;;;;2086269;28;20029;-68
2022/07/07 04:38:59;;;;;;;8.00;4.93;;;19.90;99.90;;;;;;2083661;28;20032;-68
2022/07/07 04:39:59;;;;;;;5.38;4.85;;;19.90;99.90;;;;;;2082758;28;20151;-68
2022/07/07 04:41:00;;;;;;;9.82;5.82;;;19.90;99.90;;;;;;2083678;28;20105;-68
2022/07/07 04:42:01;;;;;;;10.25;5.45;;;19.90;99.90;;;;;;2084172;28;20075;-68
2022/07/07 04:43:01;;;;;;;6.18;4.32;;;19.90;99.90;;;;;;2080855;28;20129;-68
2022/07/07 04:44:02;;;;;;;6.72;5.53;;;19.90;99.90;;;;;;2085723;28;20025;-68
2022/07/07 04:45:03;;;;;;;5.00;4.50;;;19.90;99.90;;;;;;2081731;28;20035;-68
2022/07/07 04:46:04;;;;;;;5.38;4.88;;;19.90;99.90;;;;;;2083510;28;20036;-68
2022/07/07 04:47:04;;;;;;;6.10;4.93;;;19.90;99.90;;;;;;2082658;28;20614;-69
2022/07/07 04:48:05;;;;;;;7.68;5.70;;;19.90;99.90;;;;;;2083410;28;20038;-69
2022/07/07 04:49:06;;;;;;;7.10;5.55;;;19.90;99.90;;;;;;2083075;28;20022;-68
2022/07/07 04:50:13;;;;;;;8.10;5.22;;;19.90;99.90;;;;;;2083056;28;20041;-68
2022/07/07 04:51:13;;;;;;;7.82;5.68;;;19.90;99.90;;;;;;2082328;28;20030;-69
2022/07/07 04:52:14;;;;;;;5.97;5.13;;;19.90;99.90;;;;;;2084610;28;20096;-68
2022/07/07 04:53:14;;;;;;;8.57;5.55;;;19.80;99.90;;;;;;2081393;28;20116;-69
2022/07/07 04:54:15;;;;;;;7.47;5.97;;;19.80;99.90;;;;;;2082845;28;20029;-69
2022/07/07 04:55:16;;;;;;;6.72;5.75;;;19.80;99.90;;;;;;2085049;28;20045;-69
2022/07/07 04:56:17;;;;;;;6.70;5.53;;;19.80;99.90;;;;;;2082595;28;20036;-69
2022/07/07 04:57:17;;;;;;;7.00;5.40;;;19.80;99.90;;;;;;2084457;28;20021;-69
2022/07/07 04:58:18;;;;;;;7.05;5.30;;;19.80;99.90;;;;;;2083395;28;20626;-69
2022/07/07 04:59:18;;;;;;;7.05;5.25;;;19.80;99.90;;;;;;2083447;28;20027;-69
2022/07/07 05:00:19;;;;;;;19.58;6.20;;;19.80;99.90;;;;;;2084874;28;20091;-69
2022/07/07 05:01:20;;;;;;;7.85;5.97;;;19.70;99.90;;;;;;2084103;28;20079;-69
2022/07/07 05:02:20;;;;;;;6.70;5.70;;;19.70;99.90;;;;;;2084914;28;20024;-69
2022/07/07 05:03:21;;;;;;;8.18;5.82;;;19.70;99.90;;;;;;2085498;28;20097;-69
2022/07/07 05:04:22;;;;;;;9.70;5.90;;;19.70;99.90;;;;;;2084103;28;20484;-69
2022/07/07 05:05:22;;;;;;;5.78;5.13;;;19.70;99.90;;;;;;2084414;28;20028;-69
2022/07/07 05:06:23;;;;;;;5.63;4.97;;;19.70;99.90;;;;;;2086792;28;20491;-69
2022/07/07 05:07:23;;;;;;;7.22;4.97;;;19.70;99.90;;;;;;2085994;28;20037;-69
2022/07/07 05:08:24;;;;;;;4.85;4.35;;;19.60;99.90;;;;;;2087153;28;20029;-69
2022/07/07 05:09:25;;;;;;;4.68;4.28;;;19.60;99.90;;;;;;2085498;28;20026;-69
2022/07/07 05:10:25;;;;;;;6.22;4.05;;;19.50;99.90;;;;;;2084415;28;20030;-69
2022/07/07 05:11:26;;;;;;;5.18;3.42;;;19.50;99.90;;;;;;2083251;28;20029;-69
2022/07/07 05:12:27;;;;;;;6.22;3.45;;;19.50;99.90;;;;;;2083360;28;20397;-69
2022/07/07 05:13:27;;;;;;;7.18;3.60;;;19.50;99.90;;;;;;2084909;28;20059;-70
2022/07/07 05:14:28;;;;;;;4.55;3.42;;;19.50;99.90;;;;;;2084541;28;20036;-70
2022/07/07 05:15:29;;;;;;;3.80;3.30;;;19.50;99.90;;;;;;2081939;28;20021;-70
2022/07/07 05:16:30;;;;;;;3.85;2.67;;;19.50;99.90;;;;;;2085088;28;20017;-70